createdAt,value
2018-08-10T00:03:00.926Z,45.73
2018-08-10T00:08:04.839Z,45.49
2018-08-10T00:13:08.742Z,46.31
2018-08-10T00:18:12.560Z,45.73
2018-08-10T00:23:16.519Z,47.31
2018-08-10T00:28:20.335Z,45.56
2018-08-10T00:33:24.234Z,45.05
2018-08-10T00:38:28.090Z,46.69
2018-08-10T00:43:31.927Z,45.59
2018-08-10T00:48:35.798Z,45.06
2018-08-10T00:53:39.650Z,45.50
2018-08-10T00:58:45.054Z,44.48
2018-08-10T01:03:49.711Z,44.61
2018-08-10T01:08:54.571Z,45.10
2018-08-10T01:13:58.464Z,45.55
2018-08-10T01:19:02.373Z,45.58
2018-08-10T01:24:06.231Z,44.70
2018-08-10T01:29:10.175Z,45.58
2018-08-10T01:34:14.107Z,47.30
2018-08-10T01:39:18.040Z,47.43
2018-08-10T01:44:22.004Z,48.61
2018-08-10T01:49:26.006Z,49.28
2018-08-10T01:54:29.971Z,49.65
2018-08-10T01:59:33.843Z,49.37
2018-08-10T02:04:37.702Z,49.99
2018-08-10T02:09:41.590Z,50.34
2018-08-10T02:14:45.433Z,49.81
2018-08-10T02:19:49.290Z,50.21
2018-08-10T02:24:53.209Z,50.61
2018-08-10T02:29:57.217Z,49.92
2018-08-10T02:35:02.345Z,50.71
2018-08-10T02:40:12.511Z,51.03
2018-08-10T02:45:16.782Z,51.03
2018-08-10T02:50:20.556Z,50.64
2018-08-10T02:55:24.534Z,50.79
2018-08-10T03:00:28.556Z,50.30
2018-08-10T03:05:32.495Z,50.01
2018-08-10T03:10:36.265Z,49.35
2018-08-10T03:15:40.085Z,48.69
2018-08-10T03:20:44.024Z,45.87
2018-08-10T03:25:47.891Z,47.29
2018-08-10T03:30:51.711Z,47.24
2018-08-10T03:35:55.502Z,44.49
2018-08-10T03:40:59.388Z,44.97
2018-08-10T03:46:03.277Z,46.40
2018-08-10T03:51:07.226Z,46.95
2018-08-10T03:56:11.074Z,46.89
2018-08-10T04:01:14.901Z,48.27
2018-08-10T04:06:18.754Z,48.29
2018-08-10T04:11:22.769Z,49.86
2018-08-10T04:16:26.673Z,50.20
2018-08-10T04:21:30.590Z,49.16
2018-08-10T04:26:35.047Z,48.79
2018-08-10T04:31:38.984Z,48.85
2018-08-10T04:36:42.927Z,49.00
2018-08-10T04:41:46.739Z,46.66
2018-08-10T04:46:50.606Z,45.16
2018-08-10T04:51:54.674Z,43.41
2018-08-10T04:56:59.508Z,43.34
2018-08-10T05:02:03.330Z,44.36
2018-08-10T05:07:07.157Z,45.87
2018-08-10T05:12:11.057Z,46.79
2018-08-10T05:17:16.107Z,46.72
2018-08-10T05:22:19.972Z,46.73
2018-08-10T05:27:23.841Z,46.98
2018-08-10T05:32:27.772Z,47.06
2018-08-10T05:37:31.644Z,47.15
2018-08-10T05:42:35.491Z,47.30
2018-08-10T05:47:39.299Z,48.11
2018-08-10T05:52:43.004Z,48.83
2018-08-10T05:57:46.879Z,48.99
2018-08-10T06:02:50.747Z,48.69
2018-08-10T06:07:54.559Z,47.97
2018-08-10T06:12:58.391Z,47.01
2018-08-10T06:18:02.219Z,46.15
2018-08-10T06:23:06.062Z,46.51
2018-08-10T06:28:10.014Z,46.19
2018-08-10T06:33:13.888Z,45.97
2018-08-10T06:38:17.812Z,46.26
2018-08-10T06:43:21.663Z,45.87
2018-08-10T06:48:25.542Z,45.01
2018-08-10T06:53:30.118Z,44.45
2018-08-10T06:58:34.041Z,44.61
2018-08-10T07:03:37.899Z,43.89
2018-08-10T07:08:41.860Z,44.23
2018-08-10T07:13:45.863Z,43.95
2018-08-10T07:18:49.638Z,43.71
2018-08-10T07:23:53.593Z,43.40
2018-08-10T07:28:57.404Z,43.50
2018-08-10T07:34:01.456Z,43.71
2018-08-10T07:39:08.704Z,44.13
2018-08-10T07:44:12.596Z,44.27
2018-08-10T07:49:16.502Z,43.85
2018-08-10T07:54:20.393Z,44.14
2018-08-10T07:59:24.384Z,44.41
2018-08-10T08:04:28.265Z,43.30
2018-08-10T08:09:33.102Z,42.21
2018-08-10T08:14:37.030Z,43.25
2018-08-10T08:19:41.145Z,43.03
2018-08-10T08:24:45.357Z,42.86
2018-08-10T08:29:50.308Z,43.73
2018-08-10T08:34:55.168Z,44.57
2018-08-10T08:40:12.274Z,44.75
2018-08-10T08:46:19.327Z,43.72
2018-08-10T08:51:25.483Z,44.07
2018-08-10T08:56:38.142Z,44.23
2018-08-10T09:01:42.649Z,44.11
2018-08-10T09:06:50.270Z,45.98
2018-08-10T09:11:57.073Z,45.50
2018-08-10T09:17:03.811Z,45.88
2018-08-10T09:22:08.204Z,46.03
2018-08-10T09:27:13.373Z,44.72
2018-08-10T09:32:17.299Z,45.79
2018-08-10T09:37:21.148Z,46.09
2018-08-10T09:48:19.269Z,43.63
2018-08-10T09:53:23.055Z,44.95
2018-08-10T09:58:26.782Z,42.76
2018-08-10T10:03:30.478Z,42.28
2018-08-10T10:08:34.311Z,42.15
2018-08-10T10:13:39.387Z,39.33
2018-08-10T10:18:44.079Z,40.68
2018-08-10T10:23:48.046Z,40.80
2018-08-10T10:28:51.866Z,40.59
2018-08-10T10:33:55.722Z,40.79
2018-08-10T10:38:59.598Z,38.63
2018-08-10T10:44:03.540Z,39.45
2018-08-10T10:49:07.415Z,36.97
2018-08-10T10:54:11.276Z,37.52
2018-08-10T10:59:16.392Z,37.56
2018-08-10T11:04:20.841Z,37.02
2018-08-10T11:09:24.656Z,37.43
2018-08-10T11:14:28.510Z,37.19
2018-08-10T11:19:32.394Z,37.25
2018-08-10T11:24:36.326Z,37.69
2018-08-10T11:29:40.253Z,36.68
2018-08-10T11:34:44.802Z,32.95
2018-08-10T11:39:48.695Z,35.36
2018-08-10T11:44:52.600Z,35.17
2018-08-10T11:49:56.506Z,36.41
2018-08-10T11:55:01.665Z,36.36
2018-08-10T12:00:08.456Z,37.14
2018-08-10T12:05:13.611Z,37.08
2018-08-10T12:10:17.449Z,37.06
2018-08-10T12:15:21.391Z,37.70
2018-08-10T12:20:25.549Z,37.34
2018-08-10T12:25:29.475Z,37.25
2018-08-10T12:30:35.022Z,37.11
2018-08-10T12:35:39.000Z,36.95
2018-08-10T12:40:42.937Z,37.39
2018-08-10T12:45:46.853Z,36.47
2018-08-10T12:50:50.816Z,36.72
2018-08-10T12:55:54.674Z,36.72
2018-08-10T13:00:58.589Z,37.39
2018-08-10T13:06:02.532Z,37.23
2018-08-10T13:11:06.605Z,37.66
2018-08-10T13:16:10.559Z,37.21
2018-08-10T13:21:14.564Z,37.38
2018-08-10T13:26:18.541Z,38.35
2018-08-10T13:31:22.471Z,37.56
2018-08-10T13:36:26.412Z,38.25
2018-08-10T13:41:30.991Z,38.06
2018-08-10T13:46:34.861Z,37.26
2018-08-10T13:51:38.729Z,37.41
2018-08-10T13:56:42.600Z,37.11
2018-08-10T14:01:46.506Z,36.44
2018-08-10T14:06:51.635Z,37.32
2018-08-10T14:11:55.471Z,29.08
2018-08-10T14:17:00.461Z,26.92
2018-08-10T14:22:04.498Z,27.06
2018-08-10T14:27:08.584Z,26.58
2018-08-10T14:32:13.332Z,26.18
2018-08-10T14:37:17.208Z,26.29
2018-08-10T14:42:21.137Z,27.10
2018-08-10T14:47:25.098Z,26.37
2018-08-10T14:52:29.070Z,26.59
2018-08-10T14:57:33.142Z,26.92
2018-08-10T15:02:37.856Z,27.81
2018-08-10T15:07:45.004Z,26.43
2018-08-10T15:12:49.136Z,26.26
2018-08-10T15:17:53.214Z,26.25
2018-08-10T15:22:57.409Z,25.91
2018-08-10T15:28:01.606Z,25.97
2018-08-10T15:33:06.902Z,26.29
2018-08-10T15:38:11.104Z,26.64
2018-08-10T15:43:15.112Z,24.73
2018-08-10T15:48:19.180Z,26.10
2018-08-10T15:53:23.318Z,25.43
2018-08-10T15:58:27.381Z,24.61
2018-08-10T16:03:31.278Z,24.78
2018-08-10T16:08:35.597Z,24.86
2018-08-10T16:13:40.339Z,25.00
2018-08-10T16:18:45.323Z,24.63
2018-08-10T16:23:50.898Z,24.69
2018-08-10T16:28:56.527Z,24.72
2018-08-10T16:34:03.733Z,24.21
2018-08-10T16:39:09.934Z,24.48
2018-08-10T16:44:14.707Z,24.50
2018-08-10T16:49:19.869Z,24.64
2018-08-10T16:54:24.700Z,23.96
2018-08-10T16:59:29.840Z,23.92
2018-08-10T17:04:33.786Z,24.91
2018-08-10T17:09:38.803Z,25.20
2018-08-10T17:14:45.027Z,25.53
2018-08-10T17:19:49.237Z,26.38
2018-08-10T17:24:54.292Z,24.37
2018-08-10T17:29:59.278Z,24.89
2018-08-10T17:35:04.053Z,25.39
2018-08-10T17:40:09.931Z,25.22
2018-08-10T17:45:16.048Z,24.35
2018-08-10T17:50:21.279Z,24.21
2018-08-10T17:55:25.715Z,24.38
2018-08-10T18:00:30.050Z,23.73
2018-08-10T18:05:34.210Z,23.70
2018-08-10T18:10:39.349Z,24.20
2018-08-10T18:15:44.261Z,24.66
2018-08-10T18:20:48.235Z,24.74
2018-08-10T18:25:52.194Z,24.90
2018-08-10T18:30:56.269Z,24.78
2018-08-10T18:36:00.363Z,26.43
2018-08-10T18:41:04.321Z,27.33
2018-08-10T18:46:08.564Z,26.87
2018-08-10T18:51:12.465Z,27.06
2018-08-10T18:56:17.461Z,26.72
2018-08-10T19:01:22.454Z,27.29
2018-08-10T19:06:26.779Z,27.27
2018-08-10T19:11:30.815Z,27.10
2018-08-10T19:16:35.370Z,27.93
2018-08-10T19:21:39.254Z,28.99
2018-08-10T19:26:43.262Z,29.41
2018-08-10T19:31:47.348Z,29.76
2018-08-10T19:36:52.331Z,29.59
2018-08-10T19:41:56.523Z,28.51
2018-08-10T19:47:00.467Z,29.20
2018-08-10T19:52:04.576Z,30.52
2018-08-10T19:57:08.568Z,30.46
2018-08-10T20:02:15.661Z,31.96
2018-08-10T20:07:19.788Z,31.30
2018-08-10T20:12:23.693Z,31.54
2018-08-10T20:17:27.479Z,31.24
2018-08-10T20:22:31.605Z,31.70
2018-08-10T20:27:35.589Z,32.17
2018-08-10T20:32:39.721Z,31.81
2018-08-10T20:37:44.095Z,32.45
2018-08-10T20:42:50.261Z,31.50
2018-08-10T20:47:56.926Z,31.85
2018-08-10T20:53:02.009Z,32.30
2018-08-10T20:58:05.972Z,31.89
2018-08-10T21:03:09.861Z,33.07
2018-08-10T21:08:13.879Z,33.02
2018-08-10T21:13:17.910Z,32.99
2018-08-10T21:18:21.679Z,33.32
2018-08-10T21:23:25.508Z,33.19
2018-08-10T21:28:29.404Z,32.82
2018-08-10T21:33:33.384Z,32.65
2018-08-10T21:38:37.268Z,32.76
2018-08-10T21:43:41.156Z,32.92
2018-08-10T21:48:45.037Z,33.41
2018-08-10T21:53:48.900Z,33.11
2018-08-10T21:58:52.737Z,33.31
2018-08-10T22:03:56.996Z,33.44
2018-08-10T22:09:00.949Z,32.91
2018-08-10T22:14:11.165Z,33.41
2018-08-10T22:19:16.458Z,33.42
2018-08-10T22:24:20.328Z,33.38
2018-08-10T22:29:24.314Z,33.60
2018-08-10T22:34:28.280Z,33.49
2018-08-10T22:39:32.511Z,33.37
2018-08-10T22:44:36.452Z,33.30
2018-08-10T22:49:40.591Z,33.66
2018-08-10T22:54:44.625Z,33.56
2018-08-10T22:59:49.478Z,31.87
2018-08-10T23:04:53.303Z,32.58
2018-08-10T23:09:57.495Z,32.52
2018-08-10T23:15:06.237Z,32.49
2018-08-10T23:20:14.025Z,32.78
2018-08-10T23:25:17.911Z,33.35
2018-08-10T23:30:21.831Z,33.51
2018-08-10T23:35:26.244Z,33.11
2018-08-10T23:40:30.406Z,33.28
2018-08-10T23:45:34.350Z,32.93
2018-08-10T23:50:38.273Z,33.56
2018-08-10T23:55:42.220Z,33.38
